Tiempo atmosférico en la estación meteorológica de Santa Elena, Jaén (742 m.)



Fecha
DESCASC
Temp. máxima en grados centígrados (hora)
DESCASC
Temp. mínima en grados centígrados (hora)
DESCASC
Temp. media en grados centígrados
DESCASC
Racha de viento máxima en m/sg (hora)
DESCASC
Velocidad máxima media en intervalos de 10 minutos(hora)
DESCASC
Precipitaciones diarias en mm
DESCASC
Precipitaciones de 00:00 a 06:00 en mm
DESCASC
Precipitaciones de 06:00 a 12:00 en mm
DESCASC
Precipitaciones de 12:00 a 18:00 en mm
DESCASC
Precipitaciones de 18:00 a 24:00 en mm
DESCASC
17-09-2020 29.1 (16:20) 19.2 (04:50) 24.2 11.11 (14:50) 4.17 (15:30) 0.2 0.2 0 0 0
16-09-2020 31.9 (16:00) 17.6 (08:20) 24.8 7.5 (21:20) 3.89 (21:20) 0 0 0 0 0
15-09-2020 31.2 (17:30) 18.3 (08:50) 24.8 7.22 (16:30) 3.06 (16:10) 0.2 0 0 0.2 0
14-09-2020 31.7 (16:20) 18.9 (00:00) 25.3 6.67 (14:50) 3.06 (14:30) 0 0 0 0 0
13-09-2020 34.5 (15:10) 19.7 (00:00) 27.1 8.33 (15:30) 3.06 (17:30) 0 0 0 0 0
12-09-2020 34.8 (16:50) 18.9 (00:00) 26.8 6.39 (14:00) 2.5 (14:00) 0 0 0 0 0
11-09-2020 33.2 (17:30) 18.2 (00:00) 25.7 7.22 (15:20) 3.06 (14:50) 0 0 0 0 0
10-09-2020 32.3 (16:50) 17.2 (00:00) 24.8 9.17 (18:20) 3.06 (15:50) 0 0 0 0 0
09-09-2020 30.5 (17:00) 15.8 (00:00) 23.2 6.39 (18:00) 3.06 (18:20) 0 0 0 0 0
08-09-2020 29.5 (15:00) 15.3 (00:00) 22.4 11.11 (00:30) 5 (00:30) 0 0 0 0 0
07-09-2020 31.2 (15:10) 17.6 (08:20) 24.4 14.17 (17:10) 7.22 (16:00) 0 0 0 0 0
06-09-2020 34.7 (16:20) 19.2 (00:00) 27 6.11 (14:50) 3.33 (23:00) 0 0 0 0 0
05-09-2020 34.7 (16:30) 17.3 (00:00) 26 7.22 (16:10) 3.06 (22:20) 0 0 0 0 0
04-09-2020 33.1 (17:40) 17.8 (00:00) 25.4 6.67 (14:20) 2.5 (14:30) 0 0 0 0 0
03-09-2020 33.2 (16:50) 17 (00:00) 25.1 7.5 (14:20) 2.78 (14:20) 0 0 0 0 0
02-09-2020 32.4 (15:40) 15.1 (00:00) 23.8 8.06 (14:00) 2.78 (20:00) 0 0 0 0 0
01-09-2020 28.8 (17:20) 16.4 (00:00) 22.6 7.22 (16:40) 3.33 (14:00) 0 0 0 0 0
31-08-2020 30.7 (17:30) 13.9 (00:00) 22.3 8.33 (01:40) 4.72 (01:00) 0 0 0 0 0
30-08-2020 25.9 (16:30) 13.1 (00:00) 19.5 10 (18:20) 6.11 (05:00) 0 0 0 0 0
29-08-2020 26.8 (17:20) 15.2 (00:00) 21 13.33 (16:40) 6.39 (19:40) 0 0 0 0 0
28-08-2020 34.1 (16:00) 21.8 (00:00) 27.9 11.11 (17:10) 5.56 (18:40) 0 0 0 0 0
27-08-2020 38.6 (17:30) 22.5 (00:00) 30.5 8.89 (18:40) 3.89 (18:40) 0 0 0 0 0
26-08-2020 38.3 (17:30) 21.2 (00:00) 29.8 8.61 (14:40) 2.78 (19:00) 0 0 0 0 0
25-08-2020 37.4 (17:30) 20.1 (00:00) 28.8 8.06 (16:50) 3.06 (16:50) 0 0 0 0 0
24-08-2020 36.2 (17:20) 19.5 (00:00) 27.9 6.39 (16:10) 2.78 (12:30) 0 0 0 0 0
23-08-2020 37.1 (16:00) 22 (00:00) 29.5 8.33 (19:10) 3.33 (14:50) 0 0 0 0 0
22-08-2020 36.5 (17:20) 20.1 (00:00) 28.3 8.61 (18:40) 3.61 (19:40) 0 0 0 0 0
21-08-2020 36.2 (17:00) 19 (00:00) 27.6 8.89 (14:10) 3.89 (18:10) 0 0 0 0 0

Gráficas

Temp. máximas Temp. mínimas Temp. medias Precipitaciones Rachas de viento máximas Velocidades máximas media en intervalos de 10 minutos

Datos horarios

Fecha y hora oficial Temperatura (ºC) Velocidad del viento (km/h) Dirección del viento Racha (km/h) Dirección de racha Precipitación (mm) Presión (hPa) Tendencia (hPa) Humedad (%)
2020-09-19 23:00:00 15.7 10 Sudoeste 17 Oeste 0 932.1 1.4 86
2020-09-19 22:00:00 15.9 5 Sur 16 Sudoeste 0 931.8 1.3 84
2020-09-19 21:00:00 16.5 4 Sur 16 Sur 0 930.8 0.5 83
2020-09-19 20:00:00 17.2 3 Sudeste 15 Sur 0 930.7 0.1 81
2020-09-19 19:00:00 18 6 Sur 14 Sur 0 930.5 -0.3 80
2020-09-19 18:00:00 18.2 4 Sur 12 Sudoeste 0 930.3 -0.6 81
2020-09-19 17:00:00 17.6 8 Sudoeste 17 Sudoeste 0 930.6 -0.7 81
2020-09-19 16:00:00 17.8 10 Sudoeste 22 Oeste 0 930.8 -- 77
2020-09-19 15:00:00 19.2 10 Sudoeste 23 Sudoeste 0 930.9 -- 69
2020-09-19 14:00:00 18 9 Sur 30 Sur 0 931.3 -- 85
2020-09-19 13:00:00 15.8 13 Sudoeste 28 Sudoeste 0 931.6 -- 87
2020-09-19 12:00:00 15.7 10 Sur 26 Sur 0 931.6 -- 86
2020-09-19 11:00:00 15.8 6 Sudoeste 21 Sudoeste 0 931.3 -- 87
2020-09-19 10:00:00 14.9 10 Sudoeste 25 Sudoeste 0 930.9 -- 88
2020-09-19 09:00:00 14.5 11 Sudoeste 33 Sur 0 930.5 -- 88
2020-09-19 08:00:00 14.8 13 Sur 32 Sudoeste 0 929.6 -- 88
2020-09-19 07:00:00 14.7 11 Sudoeste 35 Sudoeste 0 929.4 -- 85
2020-09-19 06:00:00 15.6 13 Sur 43 Sudoeste 0 929.1 -- 78
2020-09-19 05:00:00 15.8 10 Sur 33 Sudoeste 0 929 -- 74
2020-09-19 04:00:00 16.1 8 Sudoeste 23 Sudoeste 0 929.1 -- 77
2020-09-19 03:00:00 16.3 13 Sudoeste 26 Sudoeste 0 929.3 -- 75
2020-09-19 02:00:00 16.5 9 Sudoeste 24 Sudoeste 0 929.6 -- 74
2020-09-19 01:00:00 16.7 12 Sudoeste 30 Sudoeste 0 929.5 -- 76
2020-09-19 00:00:00 16.8 16 Sudoeste 39 Sudoeste 0 929.4 -- 74
2020-09-18 23:00:00 17.5 15 Sudoeste 39 Sur 0 929.1 -- 73
2020-09-18 22:00:00 17.9 12 Sudoeste 28 Sudoeste 0 928.5 -- 71
2020-09-18 21:00:00 18.5 11 Sudoeste 26 Sudoeste 0 927.5 -- 67
2020-09-18 20:00:00 18.7 12 Oeste 24 Oeste 0 927 -- 69
2020-09-18 19:00:00 19.2 15 Oeste 33 Noroeste 0 926.9 -- 69
2020-09-18 18:00:00 20.8 9 Noroeste 48 Sudoeste 0 926.4 -- 60
2020-09-18 17:00:00 22.7 21 Sur 65 Sur 0 925.4 -- 47
2020-09-18 16:00:00 25 24 Sur 60 Sur 0 925.3 -- 33
2020-09-18 15:00:00 26.4 14 Sur 51 Sur 0 925.4 -- 35
2020-09-18 14:00:00 24.6 17 Sur 39 Sur 0 926 -- 42
2020-09-18 13:00:00 22.3 8 Sudeste 18 Sudeste 0 926.6 -- 56
2020-09-18 12:00:00 19.3 6 Sudeste 15 Este 0 926.8 -- 68
2020-09-18 11:00:00 17.8 7 Norte 12 Norte 0 926.7 -- 82
2020-09-18 10:00:00 18 5 Sur 18 Sudoeste 0 926.6 -- 74
2020-09-18 09:00:00 17.8 8 Sur 21 Sudeste 0 926.3 -- 67
2020-09-18 08:00:00 16.7 4 Sur 12 Sur 0 926 -- 70
2020-09-18 07:00:00 17.1 5 Sudeste 24 Este 0 925.9 -- 68
2020-09-18 06:00:00 17.4 12 Sudeste 31 Sudeste 0 925.6 -- 66
2020-09-18 05:00:00 18.3 15 Sudeste 40 Sudeste 0 926.3 -- 61
2020-09-18 04:00:00 19.7 11 Sudeste 31 Sur 0 926.8 -- 52
2020-09-18 03:00:00 20.4 10 Sur 34 Sur 0 927.1 -- 50
2020-09-18 02:00:00 20.7 10 Sur 32 Sur 0 927.2 -- 47
2020-09-18 01:00:00 20.7 9 Sudeste 31 Sur 0 927.4 -- 48
2020-09-18 00:00:00 21.1 10 Sur 26 Sur 0 927.8 -- 48
2020-09-17 23:00:00 21 5 Sur 25 Este 0 927.4 -- 59
2020-09-17 22:00:00 21.1 11 Sudeste 28 Sur 0 927 -- 59
2020-09-17 21:00:00 20.8 2 Norte 6 Noroeste 0 926.4 -- 64
2020-09-17 20:00:00 21.4 4 Norte 15 Sudoeste 0 926.3 -- 66
2020-09-17 19:00:00 23.1 8 Sur 33 Sur 0 927.1 -- 59
2020-09-17 18:00:00 28.8 6 Sudeste 26 Sudoeste 0 925.7 -- 29
2020-09-17 17:00:00 28.3 8 Sur 32 Sur 0 926.8 -- 31
2020-09-17 16:00:00 28.4 13 Sur 36 Sur 0 927.3 -- 31
2020-09-17 15:00:00 27.2 14 Sur 40 Oeste 0 927.9 -- 34
2020-09-17 14:00:00 26.2 10 Sur 26 Sur 0 928.4 -- 37
2020-09-17 13:00:00 24.3 4 Sudeste 13 Sur 0 928.7 -- 45
2020-09-17 12:00:00 22.8 4 Sudeste 10 Sudeste 0 929 -- 50
2020-09-17 11:00:00 21.9 4 Sudeste 11 Sudeste 0 929 -- 54
2020-09-17 10:00:00 21.6 3 Sudeste 12 Sur 0 928.6 -- 54
2020-09-17 09:00:00 20.5 3 Sur 9 Sur 0 928.4 -- 58
2020-09-17 08:00:00 19.9 4 Sur 8 Sur 0 928.1 -- 60
2020-09-17 07:00:00 19.8 2 Sudoeste 8 Sudoeste 0 927.9 -- 60
2020-09-17 06:00:00 19.5 2 Noroeste 4 Norte 0.2 928 -- 62
2020-09-17 05:00:00 19.2 2 Norte 8 Este 0 928.1 -- 68
2020-09-17 04:00:00 19.5 3 Nordeste 14 Sudeste 0 928.6 -- 71
2020-09-17 03:00:00 20 4 Sudeste 16 Sur 0 929.2 -- 70
2020-09-17 02:00:00 20.8 8 Sudeste 15 Sudeste 0 930 -- 68
2020-09-17 01:00:00 22.5 8 Sudoeste 28 Sur 0 930.4 -- 53
2020-09-17 00:00:00 24 8 Sur 26 Sudoeste 0 930.1 -- 37
2020-09-16 23:00:00 25 8 Sudoeste 20 Oeste 0 929.8 -- 33
2020-09-16 22:00:00 25.6 10 Sudoeste 27 Sudoeste 0 929.3 -- 32
2020-09-16 21:00:00 26.6 11 Sudoeste 23 Oeste 0 928.6 -- 31
2020-09-16 20:00:00 28.5 7 Sudoeste 14 Sudoeste 0 928.2 -- 26
2020-09-16 19:00:00 30 3 Sur 15 Sudoeste 0 928 -- 24
2020-09-16 18:00:00 30.8 5 Oeste 17 Sur 0 928.3 -- 21
2020-09-16 17:00:00 30.9 6 Sudoeste 21 Sur 0 928.7 -- 21
2020-09-16 16:00:00 31.5 6 Sudeste 21 Sudeste 0 929.3 -- 21
2020-09-16 15:00:00 30.9 8 Sur 22 Sudoeste 0 930.1 -- 23
2020-09-16 14:00:00 30 7 Sudeste 21 Sur 0 930.8 -- 26
2020-09-16 13:00:00 28.3 6 Sur 15 Este 0 931.5 -- 32
2020-09-16 12:00:00 25.8 4 Sudeste 14 Sur 0 932.1 -- 38
2020-09-16 11:00:00 23.2 6 Sudeste 13 Sudeste 0 932.2 -- 47
2020-09-16 10:00:00 19.9 3 Nordeste 6 Este 0 932.5 -- 59
2020-09-16 09:00:00 18.3 3 Nordeste 8 Este 0 932.3 -- 64
2020-09-16 08:00:00 17.9 4 Norte 6 Este 0 932.2 -- 60
2020-09-16 07:00:00 18.8 3 Nordeste 8 Este 0 932.3 -- 56
2020-09-16 06:00:00 19.5 2 Sur 4 Sur 0 932.3 -- 55
2020-09-16 05:00:00 20.1 0 Calma 6 Sudoeste 0 932.5 -- 53
2020-09-16 04:00:00 21 2 Sur 12 Sur 0 932.6 -- 50
2020-09-16 03:00:00 22.4 6 Oeste 13 Oeste 0 932.9 -- 44
2020-09-16 02:00:00 22.5 8 Oeste 14 Oeste 0 933.2 -- 44
2020-09-16 01:00:00 22.9 7 Oeste 13 Oeste 0 933 -- 45
2020-09-16 00:00:00 23.3 8 Oeste 15 Oeste 0 933.2 -- 43
2020-09-15 23:00:00 23.7 7 Sudoeste 16 Sudoeste 0 933.1 -- 42
2020-09-15 22:00:00 24.4 8 Oeste 15 Oeste 0 932.7 -- 39
2020-09-15 21:00:00 25.8 8 Oeste 17 Sudoeste 0 932 -- 35
2020-09-15 20:00:00 28 8 Sudoeste 21 Sudoeste 0 931.9 -- 30
2020-09-15 19:00:00 29.9 8 Sudoeste 21 Sur 0 931.8 -- 28
2020-09-15 18:00:00 30.6 7 Sur 25 Sudoeste 0 932 -- 25
2020-09-15 17:00:00 30.8 9 Oeste 26 Sur 0 932.3 -- 26
2020-09-15 16:00:00 30.6 8 Sur 23 Sur 0 932.8 -- 28
2020-09-15 15:00:00 29.3 8 Sudoeste 20 Sur 0 933.4 -- 30
2020-09-15 14:00:00 27.7 7 Sur 19 Este 0 934 -- 40
2020-09-15 13:00:00 26 5 Sur 21 Sudeste 0.2 934.6 -- 51
2020-09-15 12:00:00 24.1 6 Sudeste 15 Sudeste 0 935 -- 59
2020-09-15 11:00:00 20.9 2 Norte 8 Sudoeste 0 935.1 -- 78
2020-09-15 10:00:00 19 0 Calma 7 Sur 0 934.9 -- 83
2020-09-15 09:00:00 18.5 3 Sudeste 8 Sur 0 934.6 -- 84
2020-09-15 08:00:00 18.8 3 Sudeste 7 Sur 0 934.3 -- 83
2020-09-15 07:00:00 18.7 2 Nordeste 10 Sur 0 933.8 -- 79
2020-09-15 06:00:00 19 2 Sur 9 Sudoeste 0 933.9 -- 72
2020-09-15 05:00:00 19.2 2 Sur 8 Sur 0 934 -- 67
2020-09-15 04:00:00 19.8 3 Este 9 Sudoeste 0 934.2 -- 59
2020-09-15 03:00:00 20.6 5 Sur 12 Sur 0 934.2 -- 57
2020-09-15 02:00:00 21.3 5 Sur 19 Sudoeste 0 934.2 -- 47
2020-09-15 01:00:00 22.1 7 Sur 19 Sudoeste 0 934 -- 42
2020-09-15 00:00:00 23.4 8 Sudoeste 16 Oeste 0 933.5 -- 36
2020-09-14 23:00:00 24.2 9 Oeste 15 Oeste 0 933.2 -- 34
2020-09-14 22:00:00 24.6 4 Sur 10 Sudeste 0 932.4 -- 32
2020-09-14 21:00:00 26 6 Sudeste 17 Sur 0 931.8 -- 29
2020-09-14 20:00:00 28.4 4 Sur 13 Sudeste 0 931.9 -- 22
2020-09-14 19:00:00 28.6 3 Sudeste 13 Sudoeste 0 931.9 -- 22
2020-09-14 18:00:00 28.8 7 Oeste 18 Sudoeste 0 932.8 -- 21
2020-09-14 17:00:00 29.9 11 Sudoeste 22 Sudoeste 0 932.8 -- 19
2020-09-14 16:00:00 31.4 5 Sur 18 Sur 0 933 -- 19
2020-09-14 15:00:00 31.3 9 Sur 24 Sur 0 933.5 -- 20
2020-09-14 14:00:00 30.6 8 Sudeste 23 Sudeste 0 933.9 -- 20
2020-09-14 13:00:00 28.2 7 Sudeste 21 Sudeste 0 934.5 -- 24
2020-09-14 12:00:00 26 7 Sudeste 16 Este 0 934.8 -- 28
2020-09-14 11:00:00 23.4 5 Sur 21 Sur 0 934.7 -- 37
2020-09-14 10:00:00 22.5 3 Sur 8 Sur 0 934.2 -- 40
2020-09-14 09:00:00 19.8 2 Nordeste 4 Este 0 934.1 -- 49
2020-09-14 08:00:00 18.9 2 Nordeste 6 Nordeste 0 933.6 -- 50
2020-09-14 07:00:00 19.7 2 Sudoeste 4 Noroeste 0 933.3 -- 49
2020-09-14 06:00:00 19.6 2 Norte 6 Norte 0 933.1 -- 47
2020-09-14 05:00:00 20.2 3 Noroeste 6 Noroeste 0 933.5 -- 47
2020-09-14 04:00:00 20.3 2 Sudoeste 6 Sudoeste 0 933.8 -- 47
2020-09-14 03:00:00 20.8 3 Sur 15 Sur 0 934.3 -- 47
2020-09-14 02:00:00 21.4 8 Sur 17 Sur 0 934.9 -- 48
2020-09-14 01:00:00 22.1 4 Sur 10 Sur 0 934.7 -- 46
2020-09-14 00:00:00 23.1 4 Sudeste 13 Sudeste 0 934.6 -- 42
2020-09-13 23:00:00 24.3 5 Sudeste 18 Sudeste 0 934.3 -- 39
2020-09-13 22:00:00 25.8 6 Sudeste 17 Sur 0 933.7 -- 31
2020-09-13 21:00:00 27.7 5 Sudeste 18 Sur 0 932.9 -- 25
2020-09-13 20:00:00 30.1 9 Sur 20 Sur 0 932.5 -- 21
2020-09-13 19:00:00 32.5 5 Sur 19 Sur 0 932.5 -- 17
2020-09-13 18:00:00 32.6 7 Sur 26 Sur 0 932.3 -- 17
2020-09-13 17:00:00 33.9 8 Sudeste 23 Sur 0 932.5 -- 14
2020-09-13 16:00:00 33.2 8 Sur 30 Sur 0 932.9 -- 14
2020-09-13 15:00:00 34.2 9 Sudoeste 22 Sur 0 933.2 -- 13
2020-09-13 14:00:00 32.5 8 Sur 23 Este 0 933.5 -- 14
2020-09-13 13:00:00 30.8 6 Sudeste 17 Este 0 933.9 -- 15
2020-09-13 12:00:00 29.1 5 Este 16 Este 0 934.3 -- 19
2020-09-13 11:00:00 25.8 5 Nordeste 14 Norte 0 934 -- 25
2020-09-13 10:00:00 22.5 5 Nordeste 13 Nordeste 0 933.7 -- 33
2020-09-13 09:00:00 19.7 2 Norte 8 Nordeste 0 933.6 -- 43
2020-09-13 08:00:00 19.8 3 Norte 6 Norte 0 933 -- 40
2020-09-13 07:00:00 20.3 3 Noroeste 7 Sur 0 932.8 -- 40
2020-09-13 06:00:00 20.6 2 Sur 6 Sur 0 932.6 -- 39
2020-09-13 05:00:00 21.3 5 Sudoeste 9 Sudoeste 0 932.5 -- 38
2020-09-13 04:00:00 21.6 5 Oeste 9 Sudoeste 0 932.4 -- 37
2020-09-13 03:00:00 22.1 4 Sur 17 Sur 0 932.5 -- 35
2020-09-13 02:00:00 23.4 6 Sur 23 Sur 0 932.6 -- 32
2020-09-13 01:00:00 24.1 7 Sur 18 Sur 0 932.4 -- 29
2020-09-13 00:00:00 24.2 4 Sudeste 15 Sur 0 932.2 -- 28
2020-09-12 23:00:00 25.7 6 Sudeste 10 Sur 0 931.7 -- 26
2020-09-12 22:00:00 26.8 2 Nordeste 14 Sudeste 0 930.6 -- 22
2020-09-12 21:00:00 29 4 Sur 9 Sur 0 929.7 -- 15
2020-09-12 20:00:00 31.9 4 Sur 14 Sur 0 929.4 -- 14
2020-09-12 19:00:00 33.8 5 Sudoeste 15 Sur 0 929.3 -- 12
2020-09-12 18:00:00 34.6 6 Sur 23 Sudoeste 0 929.3 -- 12
2020-09-12 17:00:00 34.5 8 Sudeste 22 Sudeste 0 929.2 -- 12
2020-09-12 16:00:00 33.7 4 Norte 19 Sudeste 0 929.5 -- 14
2020-09-12 15:00:00 33.4 4 Sudoeste 22 Sur 0 929.9 -- 13
2020-09-12 14:00:00 32.6 9 Sudeste 23 Sudeste 0 930.3 -- 14
2020-09-12 13:00:00 31.1 5 Sur 15 Sudeste 0 930.6 -- 18
2020-09-12 12:00:00 28.7 4 Sudeste 13 Sudeste 0 930.6 -- 21
2020-09-12 11:00:00 24.8 5 Noroeste 10 Noroeste 0 930.5 -- 27
2020-09-12 10:00:00 22.2 4 Sudeste 12 Sudeste 0 930 -- 32
2020-09-12 09:00:00 19.4 3 Norte 6 Nordeste 0 929.8 -- 37
2020-09-12 08:00:00 19.2 4 Norte 10 Este 0 929.3 -- 35
2020-09-12 07:00:00 19.7 2 Norte 4 Norte 0 928.5 -- 33
2020-09-12 06:00:00 20.5 3 Norte 5 Este 0 928.4 -- 32
2020-09-12 05:00:00 21.2 4 Norte 6 Noroeste 0 928.4 -- 30
2020-09-12 04:00:00 21.2 4 Norte 5 Norte 0 928.3 -- 30
2020-09-12 03:00:00 22 0 Calma 6 Norte 0 928.4 -- 28
2020-09-12 02:00:00 22.3 4 Noroeste 15 Sudeste 0 928.3 -- 28
2020-09-12 01:00:00 23.4 7 Sudeste 15 Sur 0 928.3 -- 26
2020-09-12 00:00:00 24.6 6 Nordeste 15 Oeste 0 928 -- 24
2020-09-11 23:00:00 25.7 9 Oeste 18 Oeste 0 927.6 -- 22
2020-09-11 22:00:00 26 9 Oeste 14 Sudoeste 0 927.5 -- 21
2020-09-11 21:00:00 27.1 5 Sur 11 Sur 0 926.8 -- 21
2020-09-11 20:00:00 29.5 7 Sudoeste 16 Sudoeste 0 926.5 -- 18
2020-09-11 19:00:00 31.2 4 Sur 18 Sudoeste 0 926.6 -- 17
2020-09-11 18:00:00 32.2 4 Sudeste 23 Sudeste 0 926.7 -- 15
2020-09-11 17:00:00 32.8 7 Sur 24 Sudeste 0 927 -- 15
2020-09-11 16:00:00 32.7 9 Sur 26 Sur 0 927.4 -- 16
2020-09-11 15:00:00 31.3 9 Sur 25 Sudoeste 0 927.9 -- 17
2020-09-11 14:00:00 29.8 8 Sur 21 Sur 0 928.5 -- 22
2020-09-11 13:00:00 29.1 8 Sur 21 Sur 0 928.9 -- 24
2020-09-11 12:00:00 27 6 Sudeste 17 Sur 0 929.2 -- 28
2020-09-11 11:00:00 24 5 Sur 12 Sur 0 929.2 -- 33
2020-09-11 10:00:00 20.6 4 Sudoeste 8 Sudoeste 0 928.9 -- 43
2020-09-11 09:00:00 18.5 0 Calma 4 Noroeste 0 928.6 -- 45
2020-09-11 08:00:00 18.3 3 Norte 4 Norte 0 928.3 -- 40
2020-09-11 07:00:00 19 3 Noroeste 5 Norte 0 928 -- 35
2020-09-11 06:00:00 19.4 0 Calma 9 Sudeste 0 928 -- 34
2020-09-11 05:00:00 20.5 4 Sur 7 Sudeste 0 928.1 -- 30
2020-09-11 04:00:00 20.9 3 Norte 5 Norte 0 928.2 -- 29
2020-09-11 03:00:00 21.3 2 Noroeste 5 Norte 0 928.5 -- 27
2020-09-11 02:00:00 22.4 5 Este 10 Este 0 929 -- 26
2020-09-11 01:00:00 22.8 4 Norte 10 Nordeste 0 929.1 -- 25
2020-09-11 00:00:00 23.5 6 Nordeste 11 Nordeste 0 929.3 -- 24
2020-09-10 23:00:00 23.8 5 Norte 9 Este 0 929.4 -- 24
2020-09-10 22:00:00 24.7 3 Norte 7 Nordeste 0 929.1 -- 23
2020-09-10 21:00:00 26.7 0 Calma 8 Sudoeste 0 928.6 -- 23
2020-09-10 20:00:00 29.6 3 Sudeste 20 Sudeste 0 928.5 -- 18
2020-09-10 19:00:00 31.3 5 Sur 33 Sudeste 0 928.5 -- 17
2020-09-10 18:00:00 31.5 5 Oeste 19 Sur 0 928.8 -- 17
2020-09-10 17:00:00 31.8 8 Sudoeste 24 Sur 0 929.2 -- 17
2020-09-10 16:00:00 31.4 7 Sur 27 Sudoeste 0 929.9 -- 19
2020-09-10 15:00:00 30.2 7 Sur 23 Sur 0 930.6 -- 21
2020-09-10 14:00:00 28.8 9 Sur 23 Sur 0 931.3 -- 23
2020-09-10 13:00:00 27.2 9 Sur 20 Sur 0 932 -- 29
2020-09-10 12:00:00 24.8 7 Sur 19 Sur 0 932.7 -- 32
2020-09-10 11:00:00 22.4 6 Sudeste 13 Sur 0 932.9 -- 36
2020-09-10 10:00:00 19.4 2 Sudeste 8 Sur 0 932.6 -- 43
2020-09-10 09:00:00 17.3 3 Norte 9 Sudeste 0 932.3 -- 47
2020-09-10 08:00:00 17.4 3 Este 8 Sudeste 0 931.8 -- 46
2020-09-10 07:00:00 17.8 2 Norte 8 Sudeste 0 931.4 -- 40
2020-09-10 06:00:00 18.5 5 Sudeste 11 Sur 0 931.5 -- 38
2020-09-10 05:00:00 19.1 4 Nordeste 7 Noroeste 0 931.6 -- 34
2020-09-10 04:00:00 19.9 3 Norte 7 Norte 0 931.9 -- 32
2020-09-10 03:00:00 19.9 4 Norte 8 Norte 0 932.1 -- 33
2020-09-10 02:00:00 20.6 2 Noroeste 6 Sudeste 0 932.5 -- 31
2020-09-10 01:00:00 21.4 3 Nordeste 18 Nordeste 0 932.6 -- 30
2020-09-10 00:00:00 22.1 6 Nordeste 14 Nordeste 0 932.6 -- 28
2020-09-09 23:00:00 22.3 8 Norte 14 Norte 0 932.5 -- 28
2020-09-09 22:00:00 23.6 10 Norte 19 Norte 0 932.3 -- 26
2020-09-09 21:00:00 24.8 6 Norte 12 Norte 0 931.7 -- 24
2020-09-09 20:00:00 26.3 6 Norte 19 Norte 0 931.3 -- 22
2020-09-09 19:00:00 27.5 6 Norte 21 Noroeste 0 931.2 -- 23
2020-09-09 18:00:00 28.4 7 Nordeste 23 Nordeste 0 931.2 -- 23
2020-09-09 17:00:00 29.3 9 Oeste 22 Oeste 0 931.6 -- 24
2020-09-09 16:00:00 28.5 5 Sudoeste 19 Sudoeste 0 931.9 -- 27
2020-09-09 15:00:00 27.4 7 Sur 18 Sudeste 0 932.5 -- 31
2020-09-09 14:00:00 28.4 7 Sur 23 Sudeste 0 932.8 -- 29
2020-09-09 13:00:00 26.3 5 Sudoeste 18 Sudeste 0 933.4 -- 34
2020-09-09 12:00:00 24.3 5 Sudeste 17 Sur 0 934 -- 39
2020-09-09 11:00:00 21.5 5 Sudeste 13 Nordeste 0 934.1 -- 49
2020-09-09 10:00:00 18.6 5 Norte 11 Nordeste 0 933.8 -- 58
2020-09-09 09:00:00 16.4 2 Nordeste 7 Este 0 933.6 -- 67
2020-09-09 08:00:00 15.8 0 Calma 9 Este 0 933.2 -- 67
2020-09-09 07:00:00 16.5 4 Este 7 Este 0 933 -- 66
2020-09-09 06:00:00 16.5 4 Norte 9 Este 0 932.7 -- 64
2020-09-09 05:00:00 17.1 3 Nordeste 6 Nordeste 0 932.7 -- 63
2020-09-09 04:00:00 17.4 3 Norte 7 Sudeste 0 932.8 -- 61
2020-09-09 03:00:00 18.1 4 Sudeste 8 Sudeste 0 932.8 -- 58
2020-09-09 02:00:00 18.7 2 Nordeste 18 Este 0 933 -- 56
2020-09-09 01:00:00 19.7 8 Sudeste 19 Sudeste 0 933.2 -- 52
2020-09-09 00:00:00 20.8 8 Sudeste 24 Sudeste 0 933 -- 48
2020-09-08 23:00:00 22.6 4 Sudeste 19 Sudeste 0 932.7 -- 40
2020-09-08 22:00:00 23.6 4 Nordeste 6 Nordeste 0 931.7 -- 33
2020-09-08 21:00:00 25.1 3 Sur 8 Sudoeste 0 931.1 -- 30
2020-09-08 20:00:00 27.2 5 Sur 17 Sudoeste 0 930.9 -- 27
2020-09-08 19:00:00 28.7 6 Sudeste 19 Sudeste 0 930.8 -- 24
2020-09-08 18:00:00 29.3 4 Sudeste 23 Sudoeste 0 930.8 -- 23
2020-09-08 17:00:00 27.9 6 Noroeste 16 Sudoeste 0 931.1 -- 25
2020-09-08 16:00:00 27.3 4 Oeste 20 Sudeste 0 931.4 -- 27
2020-09-08 15:00:00 29.1 7 Sur 24 Sur 0 931.8 -- 25
2020-09-08 14:00:00 27.7 8 Sur 24 Sur 0 932.2 -- 28
2020-09-08 13:00:00 25.2 7 Sudeste 20 Sudeste 0 932.7 -- 38
2020-09-08 12:00:00 23 8 Este 22 Sudeste 0 933 -- 47
2020-09-08 11:00:00 22 6 Este 19 Este 0 933 -- 51
2020-09-08 10:00:00 18.1 3 Norte 8 Norte 0 932.5 -- 60
2020-09-08 09:00:00 15.6 5 Norte 9 Norte 0 932.4 -- 54
2020-09-08 08:00:00 15.6 4 Nordeste 11 Nordeste 0 931.8 -- 56
2020-09-08 07:00:00 15.3 8 Nordeste 15 Nordeste 0 931.4 -- 47
2020-09-08 06:00:00 15.9 8 Nordeste 17 Nordeste 0 931.2 -- 39
2020-09-08 05:00:00 16.4 7 Nordeste 19 Norte 0 931 -- 32
2020-09-08 04:00:00 17.5 7 Nordeste 15 Nordeste 0 930.9 -- 26
2020-09-08 03:00:00 18.8 7 Nordeste 17 Nordeste 0 931 -- 23
2020-09-08 02:00:00 19.5 10 Norte 19 Norte 0 930.9 -- 23
2020-09-08 01:00:00 20.8 11 Norte 40 Nordeste 0 931.3 -- 20
2020-09-08 00:00:00 21.7 9 Nordeste 28 Norte 0 931.2 -- 19
2020-09-07 23:00:00 22.6 10 Nordeste 34 Nordeste 0 931 -- 17
2020-09-07 22:00:00 23.6 6 Este 36 Norte 0 930.4 -- 15
2020-09-07 21:00:00 24.6 19 Norte 43 Norte 0 929.2 -- 19
2020-09-07 20:00:00 26.5 23 Norte 42 Norte 0 929 -- 19
2020-09-07 19:00:00 28.3 19 Norte 42 Norte 0 928.9 -- 17
2020-09-07 18:00:00 27.3 21 Norte 51 Norte 0 928.9 -- 19
2020-09-07 17:00:00 29.1 24 Norte 50 Norte 0 928.7 -- 18
2020-09-07 16:00:00 30.1 26 Norte 48 Norte 0 928.6 -- 19
2020-09-07 15:00:00 29.9 21 Norte 39 Norte 0 929.2 -- 19
2020-09-07 14:00:00 30.1 5 Nordeste 27 Norte 0 929.5 -- 19
2020-09-07 13:00:00 28.4 12 Nordeste 28 Norte 0 930 -- 23
2020-09-07 12:00:00 26.9 10 Nordeste 24 Nordeste 0 930.2 -- 25
2020-09-07 11:00:00 23.9 6 Norte 12 Nordeste 0 930.1 -- 37
2020-09-07 10:00:00 20.6 3 Sur 9 Sudoeste 0 929.5 -- 57
2020-09-07 09:00:00 17.9 3 Norte 4 Norte 0 929.2 -- 62
2020-09-07 08:00:00 17.7 2 Noroeste 10 Sudoeste 0 928.9 -- 64
2020-09-07 07:00:00 18.3 5 Sudoeste 9 Sudoeste 0 928.6 -- 63
2020-09-07 06:00:00 19.1 4 Sudoeste 11 Sudoeste 0 928.4 -- 59
2020-09-07 05:00:00 20 4 Sur 12 Sudoeste 0 928.4 -- 54
2020-09-07 04:00:00 21.2 6 Sur 12 Sur 0 928.5 -- 46
2020-09-07 03:00:00 22.6 2 Sur 19 Sur 0 928.6 -- 36
2020-09-07 02:00:00 24.7 8 Sudeste 19 Oeste 0 928.6 -- 29
2020-09-07 01:00:00 26.1 14 Oeste 24 Noroeste 0 928.4 -- 26
2020-09-07 00:00:00 26.2 11 Oeste 19 Oeste 0 928.3 -- 26
2020-09-06 23:00:00 26.9 12 Oeste 18 Oeste 0 928.2 -- 24
2020-09-06 22:00:00 27.3 10 Oeste 16 Oeste 0 927.9 -- 22
2020-09-06 21:00:00 28.6 8 Sudoeste 15 Sudoeste 0 927.3 -- 21
2020-09-06 20:00:00 29.9 5 Sudoeste 19 Oeste 0 927.1 -- 21
2020-09-06 19:00:00 31.1 5 Sudoeste 12 Oeste 0 927.2 -- 19
2020-09-06 18:00:00 31.7 3 Oeste 21 Oeste 0 927.5 -- 19
2020-09-06 17:00:00 32.9 6 Oeste 20 Oeste 0 927.9 -- 18
2020-09-06 16:00:00 34 6 Oeste 21 Sur 0 928.2 -- 17
2020-09-06 15:00:00 32.4 8 Sudoeste 22 Sur 0 928.7 -- 20
2020-09-06 14:00:00 31.1 5 Sudeste 14 Sur 0 929 -- 24
2020-09-06 13:00:00 29.3 4 Este 15 Sur 0 929.6 -- 29
2020-09-06 12:00:00 27.3 5 Sudeste 17 Sur 0 930.1 -- 35
2020-09-06 11:00:00 24.5 4 Sudeste 11 Este 0 930 -- 45
2020-09-06 10:00:00 22.1 5 Sudeste 11 Sudeste 0 929.7 -- 54
2020-09-06 09:00:00 19.6 2 Norte 4 Noroeste 0 929.7 -- 60
2020-09-06 08:00:00 19.2 4 Norte 7 Nordeste 0 929.4 -- 62
2020-09-06 07:00:00 19.7 3 Sudeste 11 Sudeste 0 929 -- 62
2020-09-06 06:00:00 20.1 2 Sur 6 Sur 0 929 -- 58
2020-09-06 05:00:00 20.7 5 Sur 9 Sudeste 0 929.2 -- 55
2020-09-06 04:00:00 21.1 5 Sudeste 9 Sudeste 0 929.4 -- 54
2020-09-06 03:00:00 21.8 0 Calma 6 Sur 0 929.8 -- 49
2020-09-06 02:00:00 22.4 0 Calma 8 Sudeste 0 930.1 -- 44
2020-09-06 01:00:00 23.3 2 Norte 11 Este 0 930.1 -- 29
2020-09-06 00:00:00 25 4 Este 14 Este 0 929.7 -- 24
2020-09-05 23:00:00 26.6 6 Noroeste 20 Oeste 0 929.2 -- 20
2020-09-05 22:00:00 27.8 10 Oeste 17 Sudoeste 0 929.1 -- 20
2020-09-05 21:00:00 29.9 5 Sudoeste 11 Oeste 0 928.5 -- 18
2020-09-05 20:00:00 32.7 5 Sudeste 14 Sur 0 928.4 -- 15
2020-09-05 19:00:00 33.5 3 Sudoeste 20 Sudoeste 0 928.7 -- 14
2020-09-05 18:00:00 34.6 7 Sur 19 Sudoeste 0 928.9 -- 14
2020-09-05 17:00:00 34.3 6 Sur 26 Sudeste 0 929.4 -- 15
2020-09-05 16:00:00 34.2 9 Sudeste 19 Sur 0 930 -- 16
2020-09-05 15:00:00 32.7 6 Sudoeste 21 Sur 0 931 -- 20
2020-09-05 14:00:00 31.3 6 Sur 19 Sur 0 931.5 -- 24
2020-09-05 13:00:00 29.3 4 Sur 17 Sur 0 932.1 -- 28
2020-09-05 12:00:00 27.2 6 Sudeste 15 Este 0 932.6 -- 32
2020-09-05 11:00:00 24.5 5 Sudeste 14 Este 0 932.7 -- 38
2020-09-05 10:00:00 20.9 2 Sur 6 Sur 0 932.7 -- 44
2020-09-05 09:00:00 18.3 2 Norte 4 Nordeste 0 932.8 -- 52
2020-09-05 08:00:00 17.4 4 Nordeste 6 Nordeste 0 932.6 -- 53
2020-09-05 07:00:00 18.1 0 Calma 10 Sur 0 932.5 -- 49
2020-09-05 06:00:00 19.1 7 Sur 10 Sur 0 932.4 -- 46
2020-09-05 05:00:00 19.6 6 Sur 10 Sudoeste 0 932.6 -- 42
2020-09-05 04:00:00 20.1 7 Sudoeste 13 Sudoeste 0 933 -- 41
2020-09-05 03:00:00 20.4 3 Sudoeste 5 Noroeste 0 933.2 -- 38
2020-09-05 02:00:00 21.1 0 Calma 12 Sudeste 0 933.5 -- 35
2020-09-05 01:00:00 22.4 7 Sudeste 14 Este 0 933.7 -- 32
2020-09-05 00:00:00 23.5 4 Norte 16 Este 0 933.4 -- 21
2020-09-04 23:00:00 25.8 7 Oeste 12 Oeste 0 933 -- 18
2020-09-04 22:00:00 26.6 6 Sudoeste 10 Oeste 0 932.7 -- 17
2020-09-04 21:00:00 28.3 5 Sur 9 Sur 0 932.3 -- 15
2020-09-04 20:00:00 31.7 4 Sur 15 Sudoeste 0 932.2 -- 12
2020-09-04 19:00:00 32.3 4 Sur 18 Sur 0 932.4 -- 11
2020-09-04 18:00:00 32.8 6 Sudeste 19 Sur 0 932.6 -- 11
2020-09-04 17:00:00 32.8 7 Sur 23 Sudeste 0 932.9 -- 11
2020-09-04 16:00:00 31.5 4 Norte 19 Sudeste 0 933.5 -- 12
2020-09-04 15:00:00 31 6 Sudoeste 24 Este 0 934.3 -- 13
2020-09-04 14:00:00 29.3 6 Sudeste 21 Sudeste 0 934.8 -- 20
2020-09-04 13:00:00 28.2 7 Sudeste 22 Sudeste 0 935.3 -- 26
2020-09-04 12:00:00 25.7 5 Sur 15 Sur 0 935.6 -- 32
2020-09-04 11:00:00 23.4 6 Este 15 Este 0 935.5 -- 38
2020-09-04 10:00:00 20.6 3 Este 12 Sudeste 0 935.1 -- 49
2020-09-04 09:00:00 18.2 3 Sudeste 9 Este 0 934.7 -- 59
2020-09-04 08:00:00 17.9 3 Nordeste 8 Nordeste 0 934.1 -- 65
2020-09-04 07:00:00 18.2 5 Nordeste 12 Este 0 934.1 -- 64
2020-09-04 06:00:00 18.4 4 Norte 6 Nordeste 0 934 -- 63
2020-09-04 05:00:00 19.6 4 Este 11 Este 0 934.1 -- 60
2020-09-04 04:00:00 20 3 Sur 6 Sur 0 934.3 -- 58
2020-09-04 03:00:00 20.5 4 Oeste 8 Oeste 0 934.4 -- 57
2020-09-04 02:00:00 20.8 0 Calma 9 Sudeste 0 935 -- 54
2020-09-04 01:00:00 21.8 4 Sudeste 13 Sur 0 935 -- 49
2020-09-04 00:00:00 22.9 2 Sudoeste 8 Este 0 935 -- 44
2020-09-03 23:00:00 24.3 3 Sudeste 22 Sudeste 0 934.2 -- 37
2020-09-03 22:00:00 26 5 Sur 13 Sur 0 933.1 -- 27
2020-09-03 21:00:00 28.3 6 Sudoeste 12 Sudoeste 0 932.5 -- 21
2020-09-03 20:00:00 31.3 5 Sur 14 Sur 0 931.9 -- 16
2020-09-03 19:00:00 32.2 5 Oeste 22 Oeste 0 931.9 -- 14
2020-09-03 18:00:00 32.8 5 Sudoeste 18 Sudoeste 0 931.9 -- 14
2020-09-03 17:00:00 32.7 6 Oeste 21 Sudeste 0 932.2 -- 14
2020-09-03 16:00:00 32.7 8 Sudeste 21 Este 0 932.6 -- 15
2020-09-03 15:00:00 31.8 5 Sudeste 27 Este 0 933 -- 16
2020-09-03 14:00:00 30.2 7 Sudeste 21 Este 0 933.4 -- 16
2020-09-03 13:00:00 28.8 6 Sudeste 17 Sur 0 933.7 -- 24
2020-09-03 12:00:00 26.5 4 Este 14 Sudoeste 0 933.8 -- 31
2020-09-03 11:00:00 23.5 6 Sudeste 17 Este 0 933.8 -- 39
2020-09-03 10:00:00 19.8 2 Este 6 Sur 0 933.2 -- 55
2020-09-03 09:00:00 17.1 3 Noroeste 4 Noroeste 0 932.8 -- 61
2020-09-03 08:00:00 17.2 3 Norte 4 Norte 0 932.3 -- 61
2020-09-03 07:00:00 17.6 2 Noroeste 4 Noroeste 0 931.8 -- 61
2020-09-03 06:00:00 18 2 Nordeste 4 Noroeste 0 931.3 -- 58
2020-09-03 05:00:00 18.5 3 Este 7 Este 0 931.3 -- 58
2020-09-03 04:00:00 19.2 4 Este 12 Sudeste 0 931.2 -- 54
2020-09-03 03:00:00 20.1 4 Este 12 Este 0 931.1 -- 48
2020-09-03 02:00:00 20.9 6 Este 12 Este 0 931.3 -- 35
2020-09-03 01:00:00 22 6 Este 16 Este 0 931.1 -- 26
2020-09-03 00:00:00 23 4 Este 19 Este 0 930.7 -- 21
2020-09-02 23:00:00 24.3 8 Norte 18 Noroeste 0 930.1 -- 18
2020-09-02 22:00:00 24.8 5 Norte 15 Nordeste 0 929.6 -- 17
2020-09-02 21:00:00 26.2 5 Norte 24 Norte 0 928.8 -- 14
2020-09-02 20:00:00 28.8 10 Norte 21 Norte 0 928.2 -- 12
2020-09-02 19:00:00 28.2 7 Sudoeste 20 Sudoeste 0 927.6 -- 14
2020-09-02 18:00:00 28.6 6 Sudoeste 18 Sudoeste 0 927.5 -- 14
2020-09-02 17:00:00 30.5 6 Nordeste 16 Noroeste 0 927.4 -- 13
2020-09-02 16:00:00 32 10 Sudoeste 23 Sudoeste 0 927.6 -- 12
2020-09-02 15:00:00 29.6 5 Este 23 Oeste 0 927.9 -- 14
2020-09-02 14:00:00 29.7 9 Sur 29 Este 0 928.1 -- 15
2020-09-02 13:00:00 27.8 4 Sudoeste 17 Sur 0 928.4 -- 18
2020-09-02 12:00:00 25.7 6 Sur 16 Sur 0 928.6 -- 23
2020-09-02 11:00:00 22.7 4 Sur 11 Sur 0 928.4 -- 30
2020-09-02 10:00:00 18.8 5 Sudoeste 14 Sudoeste 0 927.8 -- 37
2020-09-02 09:00:00 15.6 2 Norte 5 Norte 0 927.5 -- 51
2020-09-02 08:00:00 15.1 0 Calma 5 Noroeste 0 927.1 -- 51
2020-09-02 07:00:00 15.6 3 Norte 5 Sudeste 0 926.7 -- 49
2020-09-02 06:00:00 16.5 4 Sudeste 6 Sudeste 0 926.4 -- 47
2020-09-02 05:00:00 17.4 4 Norte 11 Sur 0 926.1 -- 44
2020-09-02 04:00:00 18.5 2 Nordeste 9 Sur 0 926 -- 41
2020-09-02 03:00:00 19.6 4 Sur 10 Sur 0 926.1 -- 38
2020-09-02 02:00:00 20.7 3 Sudoeste 10 Sudoeste 0 926.1 -- 34
2020-09-02 01:00:00 21.6 7 Sudoeste 13 Oeste 0 926.1 -- 32
2020-09-02 00:00:00 21.6 6 Oeste 12 Sudoeste 0 926.1 -- 32
2020-09-01 23:00:00 21.7 3 Oeste 9 Sudoeste 0 926 -- 32
2020-09-01 22:00:00 22.9 4 Sur 8 Sur 0 925.8 -- 29
2020-09-01 21:00:00 24.1 4 Sur 14 Sudoeste 0 925.3 -- 28
2020-09-01 20:00:00 25.2 8 Sur 19 Sur 0 925 -- 26
2020-09-01 19:00:00 26.9 6 Sudoeste 21 Sur 0 925.1 -- 23
2020-09-01 18:00:00 27.8 11 Sur 23 Sur 0 925.1 -- 22
2020-09-01 17:00:00 28.3 9 Sur 26 Sudoeste 0 925.4 -- 22
2020-09-01 16:00:00 28 9 Sudoeste 25 Sudoeste 0 926 -- 20
2020-09-01 15:00:00 25.7 9 Sudoeste 23 Oeste 0 926.9 -- 28
2020-09-01 14:00:00 24.1 12 Sudoeste 26 Sudoeste 0 927.5 -- 31
2020-09-01 13:00:00 22.1 5 Sur 18 Sur 0 927.3 -- 35
2020-09-01 12:00:00 21.4 4 Sudoeste 16 Sur 0 927.9 -- 37
2020-09-01 11:00:00 19.7 4 Sudoeste 12 Sudeste 0 928.1 -- 40
2020-09-01 10:00:00 18.1 3 Sur 7 Sudoeste 0 927.7 -- 44
2020-09-01 09:00:00 16.7 0 Calma 6 Sudeste 0 927.5 -- 38
2020-09-01 08:00:00 16.9 6 Sudeste 10 Sudeste 0 927.5 -- 51
2020-09-01 07:00:00 16.6 0 Calma 9 Sudeste 0 927.3 -- 48
2020-09-01 06:00:00 17.1 2 Norte 10 Sudeste 0 927.3 -- 29
2020-09-01 05:00:00 17.8 3 Sur 7 Sudeste 0 927.7 -- 20
2020-09-01 04:00:00 17.9 2 Noroeste 5 Noroeste 0 928.2 -- 20
2020-09-01 03:00:00 18.6 4 Norte 6 Oeste 0 928.8 -- 18
2020-09-01 02:00:00 19.5 4 Sur 14 Norte 0 929.2 -- 18
2020-09-01 01:00:00 21 9 Nordeste 17 Nordeste 0 929.1 -- 15
2020-09-01 00:00:00 21.2 9 Nordeste 15 Nordeste 0 929 -- 15
2020-08-31 23:00:00 21.8 7 Norte 23 Norte 0 928.8 -- 14
2020-08-31 22:00:00 23.6 12 Norte 23 Norte 0 928.4 -- 13
2020-08-31 21:00:00 25.9 3 Noroeste 12 Sudoeste 0 927.9 -- 11
2020-08-31 20:00:00 29.2 5 Sudeste 17 Sudeste 0 927.7 -- 11
2020-08-31 19:00:00 29.9 5 Sudeste 19 Este 0 928 -- 11
2020-08-31 18:00:00 30.2 4 Nordeste 19 Sudeste 0 928.3 -- 10
2020-08-31 17:00:00 30.2 8 Sudoeste 22 Sur 0 928.8 -- 11
2020-08-31 16:00:00 29.7 6 Sudeste 21 Sur 0 929.4 -- 11
2020-08-31 15:00:00 27.7 7 Sudoeste 23 Sudoeste 0 930 -- 13
2020-08-31 14:00:00 27.1 9 Sudoeste 20 Sur 0 930.7 -- 13
2020-08-31 13:00:00 26.4 10 Este 23 Sudeste 0 931.2 -- 13
2020-08-31 12:00:00 24.6 6 Sudeste 19 Este 0 931.4 -- 14
2020-08-31 11:00:00 21.7 5 Norte 13 Norte 0 931.2 -- 19
2020-08-31 10:00:00 17.6 4 Norte 9 Norte 0 930.8 -- 25
2020-08-31 09:00:00 14.7 4 Norte 6 Nordeste 0 930.8 -- 29
2020-08-31 08:00:00 14 5 Nordeste 12 Nordeste 0 930.3 -- 30
2020-08-31 07:00:00 14.3 5 Nordeste 13 Nordeste 0 929.8 -- 29
2020-08-31 06:00:00 14.6 9 Nordeste 16 Nordeste 0 929.4 -- 29
2020-08-31 05:00:00 15.3 5 Norte 11 Nordeste 0 929.5 -- 28
2020-08-31 04:00:00 16.1 7 Nordeste 19 Nordeste 0 929.6 -- 26
2020-08-31 03:00:00 16.9 8 Nordeste 20 Nordeste 0 929.7 -- 25
2020-08-31 02:00:00 18.1 13 Nordeste 30 Norte 0 929.6 -- 23
2020-08-31 01:00:00 18.3 17 Nordeste 27 Norte 0 929.5 -- 23
2020-08-31 00:00:00 18.7 11 Norte 26 Norte 0 929.2 -- 22
2020-08-30 23:00:00 19.3 10 Nordeste 23 Nordeste 0 928.7 -- 22
2020-08-30 22:00:00 19.9 12 Norte 28 Norte 0 927.9 -- 22
2020-08-30 21:00:00 21 13 Norte 31 Nordeste 0 926.8 -- 21
2020-08-30 20:00:00 23 17 Norte 36 Norte 0 926.2 -- 18
2020-08-30 19:00:00 23.8 19 Nordeste 36 Norte 0 925.6 -- 17
2020-08-30 18:00:00 25.7 15 Noroeste 30 Norte 0 925.5 -- 15
2020-08-30 17:00:00 25.5 11 Nordeste 33 Norte 0 925.5 -- 15
2020-08-30 16:00:00 25.1 9 Norte 31 Norte 0 925.8 -- 16
2020-08-30 15:00:00 25.2 5 Noroeste 28 Norte 0 925.9 -- 17
2020-08-30 14:00:00 23.7 9 Norte 28 Norte 0 926.3 -- 19
2020-08-30 13:00:00 23 9 Norte 34 Norte 0 926.7 -- 22
2020-08-30 12:00:00 20.2 17 Norte 30 Nordeste 0 927 -- 28
2020-08-30 11:00:00 18 11 Nordeste 33 Norte 0 926.7 -- 35
2020-08-30 10:00:00 15.2 13 Norte 33 Norte 0 926.4 -- 45
2020-08-30 09:00:00 13.1 6 Nordeste 21 Nordeste 0 926.2 -- 51
2020-08-30 08:00:00 13.3 10 Nordeste 33 Nordeste 0 925.6 -- 48
2020-08-30 07:00:00 14.2 18 Nordeste 35 Norte 0 924.8 -- 44
2020-08-30 06:00:00 14.9 19 Norte 34 Norte 0 924.6 -- 41
2020-08-30 05:00:00 15.2 22 Nordeste 34 Nordeste 0 924.8 -- 39
2020-08-30 04:00:00 15.7 15 Norte 29 Norte 0 925 -- 37
2020-08-30 03:00:00 15.9 14 Norte 28 Norte 0 924.9 -- 34
2020-08-30 02:00:00 16.1 11 Norte 22 Nordeste 0 924.9 -- 32
2020-08-30 01:00:00 16.9 11 Norte 22 Norte 0 924.5 -- 29
2020-08-30 00:00:00 18.3 8 Nordeste 17 Nordeste 0 924 -- 25
2020-08-29 23:00:00 18.8 6 Nordeste 28 Norte 0 923.4 -- 24
2020-08-29 22:00:00 20 15 Norte 32 Norte 0 922.6 -- 22
2020-08-29 21:00:00 21.1 11 Norte 44 Norte 0 921.8 -- 21
2020-08-29 20:00:00 23.4 18 Norte 42 Norte 0 921.2 -- 17
2020-08-29 19:00:00 24.8 18 Norte 44 Norte 0 920.9 -- 15
2020-08-29 18:00:00 25.5 14 Norte 39 Norte 0 920.4 -- 17
2020-08-29 17:00:00 25.7 15 Norte 48 Noroeste 0 920.3 -- 16
2020-08-29 16:00:00 26.2 20 Norte 46 Norte 0 920.5 -- 17
2020-08-29 15:00:00 23.1 21 Norte 42 Norte 0 920.6 -- 23
2020-08-29 14:00:00 23.9 15 Nordeste 33 Norte 0 920.5 -- 24
2020-08-29 13:00:00 22.9 19 Norte 40 Norte 0 920.6 -- 27
2020-08-29 12:00:00 22 17 Norte 33 Norte 0 920.5 -- 35
2020-08-29 11:00:00 20.5 11 Nordeste 27 Norte 0 920.4 -- 38
2020-08-29 10:00:00 18.4 3 Este 13 Este 0 920.1 -- 36
2020-08-29 09:00:00 16 4 Este 17 Nordeste 0 919.9 -- 44
2020-08-29 08:00:00 15.5 4 Norte 10 Este 0 919.6 -- 38
2020-08-29 07:00:00 16.5 5 Sudeste 8 Sudeste 0 919.2 -- 34
2020-08-29 06:00:00 17.5 5 Sur 8 Sur 0 919.2 -- 33
2020-08-29 05:00:00 18.4 4 Sur 8 Sur 0 919.4 -- 30
2020-08-29 04:00:00 19.5 5 Sudoeste 8 Sudoeste 0 919.7 -- 26
2020-08-29 03:00:00 20.6 0 Calma 12 Oeste 0 920 -- 22
2020-08-29 02:00:00 22 7 Oeste 29 Oeste 0 920.1 -- 19
2020-08-29 01:00:00 22.8 9 Oeste 21 Noroeste 0 920.4 -- 19
2020-08-29 00:00:00 23.9 9 Noroeste 23 Oeste 0 920.6 -- 22
2020-08-28 23:00:00 24.9 12 Noroeste 23 Noroeste 0 921.1 -- 27
2020-08-28 22:00:00 26.3 14 Noroeste 33 Oeste 0 921.1 -- 25
2020-08-28 21:00:00 27.9 12 Oeste 31 Oeste 0 920.7 -- 27
2020-08-28 20:00:00 31.3 16 Oeste 33 Oeste 0 920.6 -- 22
2020-08-28 19:00:00 31.6 18 Oeste 36 Oeste 0 920.8 -- 19
2020-08-28 18:00:00 32.9 15 Oeste 40 Noroeste 0 920.9 -- 16
2020-08-28 17:00:00 32.9 17 Sudoeste 35 Noroeste 0 921.3 -- 14
2020-08-28 16:00:00 34 13 Sudoeste 37 Sudoeste 0 921.7 -- 18
2020-08-28 15:00:00 33.9 12 Sur 34 Sur 0 922.4 -- 25
2020-08-28 14:00:00 31.8 10 Sudoeste 31 Sudoeste 0 923.1 -- 28
2020-08-28 13:00:00 30.5 11 Sur 31 Sudoeste 0 924 -- 30
2020-08-28 12:00:00 28.6 10 Sur 28 Sur 0 924.5 -- 33
2020-08-28 11:00:00 26.9 8 Sur 22 Sur 0 924.5 -- 37
2020-08-28 10:00:00 23.8 9 Sudoeste 20 Sudoeste 0 924.6 -- 44
2020-08-28 09:00:00 22.3 5 Sur 10 Oeste 0 924.6 -- 46
2020-08-28 08:00:00 22 5 Oeste 12 Oeste 0 924.6 -- 41
2020-08-28 07:00:00 22.1 5 Oeste 9 Oeste 0 924.7 -- 37
2020-08-28 06:00:00 22.1 0 Calma 8 Sur 0 925 -- 37
2020-08-28 05:00:00 22.9 2 Sudoeste 12 Sur 0 925.3 -- 34
2020-08-28 04:00:00 24.3 6 Sur 19 Oeste 0 925.5 -- 29
2020-08-28 03:00:00 25.2 6 Sur 12 Sudoeste 0 926.2 -- 25
2020-08-28 02:00:00 26 5 Sur 16 Sudoeste 0 926.8 -- 23
2020-08-28 01:00:00 27.3 10 Sudoeste 17 Sudoeste 0 927.2 -- 20
2020-08-28 00:00:00 28.3 6 Oeste 17 Oeste 0 927.5 -- 17
2020-08-27 23:00:00 28.9 5 Sur 20 Sudoeste 0 927.8 -- 15
2020-08-27 22:00:00 30.4 11 Sudoeste 21 Oeste 0 927.5 -- 13
2020-08-27 21:00:00 32.2 9 Sudoeste 27 Oeste 0 927.4 -- 11
2020-08-27 20:00:00 35.3 13 Sudoeste 29 Sudoeste 0 927.4 -- 11
2020-08-27 19:00:00 37.1 11 Sudoeste 32 Sudoeste 0 927.6 -- 10
2020-08-27 18:00:00 38.2 10 Sudoeste 28 Sudoeste 0 928.2 -- 9
2020-08-27 17:00:00 38.2 10 Sur 29 Sudoeste 0 928.7 -- 10
2020-08-27 16:00:00 38.3 9 Sur 26 Sur 0 929.4 -- 10
2020-08-27 15:00:00 37.3 8 Sur 23 Sur 0 930.4 -- 11
2020-08-27 14:00:00 36.2 9 Sur 26 Sur 0 931.1 -- 12
2020-08-27 13:00:00 34.9 8 Sur 19 Sur 0 931.6 -- 14
2020-08-27 12:00:00 32.5 6 Sur 16 Sudoeste 0 932 -- 18
2020-08-27 11:00:00 29.3 3 Sur 7 Sudeste 0 931.9 -- 26
2020-08-27 10:00:00 25.6 3 Norte 10 Este 0 931.9 -- 31
2020-08-27 09:00:00 23.7 4 Sudeste 7 Este 0 931.8 -- 40
2020-08-27 08:00:00 22.7 3 Norte 5 Norte 0 931.7 -- 32
2020-08-27 07:00:00 23.1 3 Norte 4 Norte 0 931.7 -- 30
2020-08-27 06:00:00 23.6 2 Noroeste 6 Sudeste 0 931.6 -- 29
2020-08-27 05:00:00 24.4 4 Este 8 Este 0 931.9 -- 30
2020-08-27 04:00:00 25.2 2 Norte 6 Sudeste 0 932.3 -- 26
2020-08-27 03:00:00 26.1 0 Calma 8 Este 0 932.5 -- 26
2020-08-27 02:00:00 27.5 7 Sur 9 Sur 0 932.5 -- 25
2020-08-27 01:00:00 28.6 4 Norte 13 Oeste 0 932.4 -- 24
2020-08-27 00:00:00 29.9 8 Oeste 16 Oeste 0 932.5 -- 23
2020-08-26 23:00:00 29.9 6 Oeste 11 Oeste 0 932.4 -- 21
2020-08-26 22:00:00 31 6 Oeste 16 Sudoeste 0 931.7 -- 17
2020-08-26 21:00:00 32.7 7 Sur 21 Sudoeste 0 931 -- 15
2020-08-26 20:00:00 35.9 9 Sur 24 Sudoeste 0 930.6 -- 14
2020-08-26 19:00:00 37 10 Sur 29 Sur 0 930.6 -- 14
2020-08-26 18:00:00 38 9 Sur 26 Sudoeste 0 930.7 -- 13
2020-08-26 17:00:00 38 8 Sur 23 Sur 0 931.1 -- 13
2020-08-26 16:00:00 37.8 8 Sur 21 Sur 0 931.5 -- 14
2020-08-26 15:00:00 36.8 5 Sudoeste 31 Sudeste 0 932 -- 14
2020-08-26 14:00:00 35.1 7 Sur 22 Sudoeste 0 932.3 -- 17
2020-08-26 13:00:00 33 8 Sudoeste 22 Sudoeste 0 932.8 -- 25
2020-08-26 12:00:00 30.8 9 Sur 21 Sur 0 932.9 -- 31
2020-08-26 11:00:00 28.4 7 Sur 18 Sur 0 932.6 -- 37
2020-08-26 10:00:00 24.6 4 Sudeste 10 Sur 0 932.2 -- 44
2020-08-26 09:00:00 21.5 0 Calma 6 Sudeste 0 932.1 -- 45
2020-08-26 08:00:00 21.3 4 Este 7 Sur 0 931.7 -- 46
2020-08-26 07:00:00 22 5 Sudeste 9 Sur 0 931.2 -- 39
2020-08-26 06:00:00 23.1 5 Sudeste 10 Sur 0 931.1 -- 36
2020-08-26 05:00:00 23.7 3 Oeste 11 Sudoeste 0 931 -- 33
2020-08-26 04:00:00 24.8 5 Sudoeste 12 Sudoeste 0 931.1 -- 31
2020-08-26 03:00:00 26.4 5 Sudeste 13 Sur 0 931 -- 26
2020-08-26 02:00:00 27.8 8 Sudoeste 14 Oeste 0 931 -- 24
2020-08-26 01:00:00 28.4 9 Oeste 14 Oeste 0 930.9 -- 22
2020-08-26 00:00:00 28.7 7 Sudoeste 14 Oeste 0 930.5 -- 23
2020-08-25 23:00:00 29.6 8 Sudoeste 12 Oeste 0 930.2 -- 21
2020-08-25 22:00:00 30.2 7 Sudoeste 17 Sudoeste 0 929.4 -- 18
2020-08-25 21:00:00 32.3 5 Sur 17 Sur 0 928.6 -- 14
2020-08-25 20:00:00 35.7 7 Sur 21 Sudoeste 0 928.2 -- 12
2020-08-25 19:00:00 36.8 8 Sudoeste 21 Sur 0 928.3 -- 11
2020-08-25 18:00:00 36.9 6 Sudeste 24 Sudoeste 0 928.4 -- 12
2020-08-25 17:00:00 36.8 8 Sur 29 Sur 0 928.7 -- 12
2020-08-25 16:00:00 36.8 8 Sudoeste 24 Sudoeste 0 929.1 -- 15
2020-08-25 15:00:00 35.5 8 Sur 23 Sur 0 929.6 -- 14
2020-08-25 14:00:00 33.6 4 Sudoeste 19 Sudoeste 0 929.9 -- 24
2020-08-25 13:00:00 31.8 6 Sur 18 Sur 0 930.3 -- 30
2020-08-25 12:00:00 29.3 4 Sur 14 Sur 0 930.4 -- 34
2020-08-25 11:00:00 26.4 5 Sur 10 Sur 0 930.3 -- 43
2020-08-25 10:00:00 23 2 Este 8 Sur 0 930.1 -- 54
2020-08-25 09:00:00 20.9 3 Sur 6 Este 0 929.9 -- 60
2020-08-25 08:00:00 20.1 0 Calma 8 Sur 0 929.4 -- 51
2020-08-25 07:00:00 21.1 4 Sur 8 Sudoeste 0 929.1 -- 53
2020-08-25 06:00:00 21.6 5 Sur 10 Sur 0 929.1 -- 40
2020-08-25 05:00:00 22.6 5 Sur 10 Sur 0 929.1 -- 34
2020-08-25 04:00:00 23.4 7 Sudoeste 12 Sudoeste 0 929 -- 30
2020-08-25 03:00:00 24.2 6 Sur 13 Sudoeste 0 928.9 -- 27
2020-08-25 02:00:00 25.8 5 Sur 15 Oeste 0 929 -- 23
2020-08-25 01:00:00 27.3 10 Oeste 15 Oeste 0 928.8 -- 20
2020-08-25 00:00:00 27.7 9 Oeste 14 Oeste 0 928.7 -- 19
2020-08-24 23:00:00 28.2 7 Sudoeste 15 Sudoeste 0 928.5 -- 20
2020-08-24 22:00:00 29.3 8 Sudoeste 15 Sudoeste 0 928 -- 17
2020-08-24 21:00:00 31.3 6 Sur 19 Sudoeste 0 927.4 -- 13
2020-08-24 20:00:00 35 5 Sur 19 Sudoeste 0 927.3 -- 10
2020-08-24 19:00:00 35.5 7 Sur 20 Sudoeste 0 927.4 -- 9
2020-08-24 18:00:00 36 9 Sur 21 Sur 0 927.9 -- 9
2020-08-24 17:00:00 35.9 5 Sudoeste 23 Sur 0 928.2 -- 9
2020-08-24 16:00:00 35.7 5 Sur 21 Sur 0 928.7 -- 10
2020-08-24 15:00:00 34.8 9 Sur 20 Sudoeste 0 929.1 -- 10
2020-08-24 14:00:00 33 9 Sur 22 Sudoeste 0 929.4 -- 13
2020-08-24 13:00:00 31.4 8 Sur 21 Sur 0 930.1 -- 17
2020-08-24 12:00:00 29.3 7 Sur 17 Sudeste 0 930.5 -- 20
2020-08-24 11:00:00 26.6 6 Sur 14 Sur 0 930.5 -- 20
2020-08-24 10:00:00 22.7 3 Sur 8 Sur 0 930.3 -- 25
2020-08-24 09:00:00 20.1 0 Calma 7 Este 0 929.9 -- 28
2020-08-24 08:00:00 19.6 2 Norte 7 Este 0 929.6 -- 22
2020-08-24 07:00:00 20.3 0 Calma 7 Este 0 929.2 -- 21
2020-08-24 06:00:00 20.9 2 Nordeste 5 Nordeste 0 929.1 -- 20
2020-08-24 05:00:00 22.2 5 Sudeste 9 Sudeste 0 929.2 -- 18
2020-08-24 04:00:00 22.9 3 Norte 6 Norte 0 929.3 -- 15
2020-08-24 03:00:00 24.4 4 Este 16 Este 0 929.4 -- 14
2020-08-24 02:00:00 24.8 5 Nordeste 16 Nordeste 0 929.5 -- 13
2020-08-24 01:00:00 26.4 4 Noroeste 9 Noroeste 0 929.6 -- 12
2020-08-24 00:00:00 27 7 Norte 17 Noroeste 0 929.7 -- 12
2020-08-23 23:00:00 28.2 9 Noroeste 22 Noroeste 0 929.8 -- 11
2020-08-23 22:00:00 29.4 8 Oeste 17 Oeste 0 929.6 -- 11
2020-08-23 21:00:00 31.5 6 Sur 28 Sudoeste 0 929.1 -- 11
2020-08-23 20:00:00 35 10 Sudoeste 30 Sudoeste 0 928.9 -- 9
2020-08-23 19:00:00 35.9 10 Sur 28 Sur 0 929 -- 9
2020-08-23 18:00:00 36.8 10 Sudoeste 30 Sudoeste 0 929.2 -- 9
2020-08-23 17:00:00 36.9 11 Sur 26 Sur 0 929.7 -- 10
2020-08-23 16:00:00 37.1 8 Sur 24 Sudoeste 0 930.5 -- 11
2020-08-23 15:00:00 35.8 9 Sudoeste 30 Sudoeste 0 930.9 -- 10
2020-08-23 14:00:00 35.1 9 Sur 24 Sudoeste 0 931.4 -- 11
2020-08-23 13:00:00 34 6 Sur 20 Sudeste 0 932 -- 13
2020-08-23 12:00:00 32 8 Sur 17 Sudeste 0 932.6 -- 12
2020-08-23 11:00:00 28.7 6 Noroeste 12 Nordeste 0 932.6 -- 13
2020-08-23 10:00:00 25.4 4 Noroeste 6 Nordeste 0 932.5 -- 22
2020-08-23 09:00:00 22.1 3 Norte 6 Norte 0 932.5 -- 26
2020-08-23 08:00:00 22.2 4 Norte 5 Norte 0 932.5 -- 24
2020-08-23 07:00:00 22.4 3 Norte 10 Sudeste 0 932.3 -- 24
2020-08-23 06:00:00 24 7 Sudeste 10 Sudeste 0 932.4 -- 23
2020-08-23 05:00:00 24.8 7 Norte 15 Noroeste 0 932.5 -- 21
2020-08-23 04:00:00 25 7 Noroeste 17 Norte 0 932.7 -- 17
2020-08-23 03:00:00 25.4 10 Nordeste 21 Norte 0 932.7 -- 17
2020-08-23 02:00:00 26.2 7 Nordeste 13 Nordeste 0 932.7 -- 18
2020-08-23 01:00:00 27 8 Norte 18 Norte 0 932.8 -- 18
2020-08-23 00:00:00 27.7 8 Norte 18 Norte 0 932.9 -- 18
2020-08-22 23:00:00 28.4 8 Norte 22 Norte 0 933 -- 20
2020-08-22 22:00:00 29.4 8 Norte 18 Noroeste 0 932.5 -- 20
2020-08-22 21:00:00 32 7 Sudoeste 20 Sudoeste 0 931.9 -- 23
2020-08-22 20:00:00 34.8 9 Sudoeste 28 Sudoeste 0 931.5 -- 21
2020-08-22 19:00:00 35.4 10 Sur 31 Sur 0 931.4 -- 20
2020-08-22 18:00:00 35.8 10 Sudoeste 27 Sudoeste 0 931.7 -- 20
2020-08-22 17:00:00 36.2 8 Sur 28 Sudoeste 0 932.2 -- 19
2020-08-22 16:00:00 36 11 Sur 25 Sur 0 932.9 -- 19
2020-08-22 15:00:00 35 8 Sur 23 Sudeste 0 933.5 -- 21
2020-08-22 14:00:00 33.2 5 Sudeste 18 Sudeste 0 933.9 -- 24
2020-08-22 13:00:00 32 5 Sudeste 19 Sudeste 0 934.1 -- 27
2020-08-22 12:00:00 29.7 3 Sur 12 Oeste 0 934.4 -- 33
2020-08-22 11:00:00 27.1 6 Noroeste 20 Nordeste 0 934.2 -- 42
2020-08-22 10:00:00 24.1 10 Nordeste 18 Nordeste 0 934 -- 52
2020-08-22 09:00:00 20.6 3 Norte 5 Norte 0 933.7 -- 54
2020-08-22 08:00:00 20.4 2 Norte 13 Este 0 933.1 -- 50
2020-08-22 07:00:00 20.9 3 Nordeste 9 Este 0 932.7 -- 38
2020-08-22 06:00:00 21.9 3 Este 12 Nordeste 0 932.5 -- 30
2020-08-22 05:00:00 22.7 3 Nordeste 18 Nordeste 0 932.3 -- 45
2020-08-22 04:00:00 23.3 5 Nordeste 14 Nordeste 0 932.1 -- 39
2020-08-22 03:00:00 23.9 4 Nordeste 8 Nordeste 0 932.1 -- 29
2020-08-22 02:00:00 24.4 3 Norte 6 Nordeste 0 932.1 -- 25
2020-08-22 01:00:00 25.4 3 Noroeste 11 Sudoeste 0 931.9 -- 23
2020-08-22 00:00:00 26.6 8 Sudoeste 15 Oeste 0 931.5 -- 20
2020-08-21 23:00:00 27.3 9 Oeste 19 Oeste 0 931.2 -- 18
2020-08-21 22:00:00 28.2 9 Sudoeste 18 Sudoeste 0 930.6 -- 17
2020-08-21 21:00:00 30.5 7 Sur 24 Sur 0 930 -- 13
2020-08-21 20:00:00 34 10 Sur 28 Sudoeste 0 929.5 -- 10
2020-08-21 19:00:00 35.2 10 Sudoeste 31 Sudoeste 0 929.4 -- 8
2020-08-21 18:00:00 35.8 13 Sudoeste 31 Sudoeste 0 929.3 -- 9
2020-08-21 17:00:00 36.1 11 Sudoeste 29 Sudoeste 0 929.3 -- 8
2020-08-21 16:00:00 35.6 11 Sur 31 Sur 0 929.5 -- 9
2020-08-21 15:00:00 34 12 Sur 32 Oeste 0 930.1 -- 9
2020-08-21 14:00:00 32.3 10 Sudoeste 28 Sur 0 930 -- 10
2020-08-21 13:00:00 31.1 9 Sudoeste 21 Sur 0 930.1 -- 11
2020-08-21 12:00:00 29.3 9 Sur 21 Sudoeste 0 930 -- 13
2020-08-21 11:00:00 26.8 6 Sur 13 Sur 0 929.5 -- 18
2020-08-21 10:00:00 22.7 4 Sudeste 10 Sudeste 0 928.9 -- 25
2020-08-21 09:00:00 19.4 0 Calma 5 Noroeste 0 928.6 -- 27
2020-08-21 08:00:00 19 3 Nordeste 7 Este 0 928.1 -- 26
2020-08-21 07:00:00 19.3 4 Este 7 Este 0 927.7 -- 24
2020-08-21 06:00:00 19.6 3 Norte 5 Norte 0 927.5 -- 25
2020-08-21 05:00:00 20.5 2 Norte 6 Sudeste 0 927.2 -- 23
2020-08-21 04:00:00 21.6 4 Sudeste 7 Este 0 927 -- 21
2020-08-21 03:00:00 22.2 4 Sur 15 Sudoeste 0 927 -- 20
2020-08-21 02:00:00 23.4 6 Sudoeste 16 Sudoeste 0 926.9 -- 19
2020-08-21 01:00:00 25.2 7 Sur 18 Sur 0 926.5 -- 20
2020-08-21 00:00:00 26.8 9 Sudoeste 15 Sudoeste 0 925.7 -- 18